createdAt,value
2023-02-11T00:01:51.558Z,21.53
2023-02-11T00:04:20.580Z,21.00
2023-02-11T00:06:48.305Z,20.97
2023-02-11T00:09:15.902Z,21.87
2023-02-11T00:11:43.456Z,21.30
2023-02-11T00:14:11.490Z,21.33
2023-02-11T00:16:39.100Z,20.17
2023-02-11T00:19:07.327Z,20.90
2023-02-11T00:21:36.312Z,22.03
2023-02-11T00:24:03.887Z,22.33
2023-02-11T00:26:32.526Z,20.97
2023-02-11T00:29:00.902Z,21.50
2023-02-11T00:31:28.636Z,21.70
2023-02-11T00:33:56.355Z,19.97
2023-02-11T00:36:24.697Z,21.17
2023-02-11T00:38:54.655Z,19.43
2023-02-11T00:41:22.547Z,19.80
2023-02-11T00:43:50.584Z,20.93
2023-02-11T00:46:18.213Z,20.93
2023-02-11T00:48:45.776Z,21.40
2023-02-11T00:51:13.737Z,20.90
2023-02-11T00:53:41.375Z,19.60
2023-02-11T00:56:10.286Z,20.67
2023-02-11T00:58:38.235Z,20.90
2023-02-11T01:01:05.766Z,19.27
2023-02-11T01:03:33.476Z,21.30
2023-02-11T01:06:01.075Z,20.57
2023-02-11T01:08:28.785Z,21.90
2023-02-11T01:10:57.174Z,20.40
2023-02-11T01:13:26.782Z,21.33
2023-02-11T01:15:54.441Z,20.10
2023-02-11T01:18:22.084Z,19.37
2023-02-11T01:20:49.810Z,20.77
2023-02-11T01:23:17.293Z,21.00
2023-02-11T01:25:44.831Z,19.30
2023-02-11T01:28:16.873Z,20.97
2023-02-11T01:30:46.026Z,19.00
2023-02-11T01:33:13.858Z,20.57
2023-02-11T01:35:41.483Z,20.53
2023-02-11T01:38:09.375Z,20.73
2023-02-11T01:40:36.960Z,20.50
2023-02-11T01:43:04.555Z,21.23
2023-02-11T01:45:50.938Z,21.60
2023-02-11T01:48:21.881Z,21.83
2023-02-11T01:50:51.131Z,21.73
2023-02-11T01:53:36.507Z,20.60
2023-02-11T01:56:33.535Z,20.93
2023-02-11T01:59:04.172Z,20.13
2023-02-11T02:01:33.384Z,21.43
2023-02-11T02:04:03.779Z,21.17
2023-02-11T02:06:34.607Z,22.40
2023-02-11T02:09:04.626Z,21.60
2023-02-11T02:11:32.171Z,21.07
2023-02-11T02:14:00.194Z,20.03
2023-02-11T02:16:30.745Z,20.87
2023-02-11T02:19:07.619Z,20.30
2023-02-11T02:21:58.285Z,21.53
2023-02-11T02:24:39.374Z,21.37
2023-02-11T02:27:17.014Z,21.23
2023-02-11T02:30:08.305Z,21.37
2023-02-11T02:32:51.798Z,22.47
2023-02-11T02:35:25.789Z,20.97
2023-02-11T02:38:00.798Z,19.10
2023-02-11T02:40:32.556Z,21.60
2023-02-11T02:43:01.621Z,19.50
2023-02-11T02:45:29.151Z,19.83
2023-02-11T02:47:58.075Z,19.80
2023-02-11T02:50:30.218Z,19.20
2023-02-11T02:53:02.383Z,19.03
2023-02-11T02:55:37.790Z,20.60
2023-02-11T02:58:28.825Z,19.23
2023-02-11T03:01:00.240Z,18.17
2023-02-11T03:03:33.638Z,19.43
2023-02-11T03:06:04.634Z,20.67
2023-02-11T03:08:35.587Z,20.33
2023-02-11T03:11:04.285Z,18.70
2023-02-11T03:13:33.966Z,20.60
2023-02-11T03:16:04.284Z,19.63
2023-02-11T03:18:34.757Z,19.70
2023-02-11T03:21:03.642Z,19.67
2023-02-11T03:23:33.902Z,19.70
2023-02-11T03:26:04.109Z,19.93
2023-02-11T03:28:33.846Z,18.73
2023-02-11T03:31:07.307Z,19.70
2023-02-11T03:33:39.824Z,19.73
2023-02-11T03:36:09.915Z,19.90
2023-02-11T03:38:38.965Z,18.87
2023-02-11T03:41:08.980Z,19.53
2023-02-11T03:43:37.373Z,19.20
2023-02-11T03:46:05.686Z,18.47
2023-02-11T03:48:34.990Z,19.10
2023-02-11T03:51:06.476Z,21.23
2023-02-11T03:53:34.086Z,18.40
2023-02-11T03:56:03.699Z,19.63
2023-02-11T03:58:31.393Z,19.30
2023-02-11T04:00:59.106Z,20.83
2023-02-11T04:03:26.639Z,19.93
2023-02-11T04:05:54.158Z,19.60
2023-02-11T04:08:23.216Z,20.67
2023-02-11T04:10:50.813Z,20.03
2023-02-11T04:13:18.324Z,21.50
2023-02-11T04:15:48.497Z,19.00
2023-02-11T04:18:16.413Z,19.30
2023-02-11T04:20:44.119Z,20.30
2023-02-11T04:23:11.669Z,19.30
2023-02-11T04:25:40.528Z,20.10
2023-02-11T04:28:08.092Z,20.33
2023-02-11T04:30:35.596Z,19.50
2023-02-11T04:33:03.088Z,21.03
2023-02-11T04:35:30.798Z,20.13
2023-02-11T04:37:58.378Z,19.33
2023-02-11T04:40:25.946Z,18.93
2023-02-11T04:42:54.927Z,18.20
2023-02-11T04:45:22.476Z,19.20
2023-02-11T04:47:50.032Z,20.07
2023-02-11T04:50:17.963Z,18.53
2023-02-11T04:52:45.444Z,19.53
2023-02-11T04:55:12.950Z,20.30
2023-02-11T04:57:40.498Z,20.10
2023-02-11T05:00:12.825Z,18.80
2023-02-11T05:02:43.349Z,19.57
2023-02-11T05:05:14.405Z,19.40
2023-02-11T05:07:41.885Z,18.97
2023-02-11T05:10:09.700Z,18.80
2023-02-11T05:12:37.126Z,19.37
2023-02-11T05:15:04.814Z,17.80
2023-02-11T05:17:36.546Z,19.57
2023-02-11T05:20:06.756Z,18.73
2023-02-11T05:22:34.299Z,18.17
2023-02-11T05:25:01.863Z,18.73
2023-02-11T05:27:29.377Z,19.67
2023-02-11T05:29:57.278Z,20.97
2023-02-11T05:32:27.788Z,21.40
2023-02-11T05:34:56.735Z,21.93
2023-02-11T05:37:24.392Z,20.70
2023-02-11T05:39:55.123Z,19.43
2023-02-11T05:42:22.801Z,19.13
2023-02-11T05:44:50.806Z,19.90
2023-02-11T05:47:18.502Z,20.97
2023-02-11T05:49:46.176Z,18.37
2023-02-11T05:52:15.265Z,18.50
2023-02-11T05:54:44.367Z,19.33
2023-02-11T05:57:11.969Z,18.70
2023-02-11T05:59:39.646Z,18.43
2023-02-11T06:02:13.174Z,18.87
2023-02-11T06:04:41.700Z,19.33
2023-02-11T06:07:09.241Z,19.03
2023-02-11T06:09:38.238Z,18.43
2023-02-11T06:12:06.004Z,19.87
2023-02-11T06:14:33.817Z,20.17
2023-02-11T06:17:07.644Z,20.43
2023-02-11T06:19:35.243Z,20.13
2023-02-11T06:22:05.898Z,22.57
2023-02-11T06:24:58.673Z,22.20
2023-02-11T06:27:22.512Z,19.57
2023-02-11T06:29:54.871Z,20.27
2023-02-11T06:32:42.348Z,21.27
2023-02-11T06:35:11.937Z,18.33
2023-02-11T06:37:39.902Z,19.73
2023-02-11T06:40:10.729Z,19.27
2023-02-11T06:42:39.915Z,20.53
2023-02-11T06:45:09.124Z,23.20
2023-02-11T06:47:36.850Z,20.67
2023-02-11T06:50:04.597Z,20.93
2023-02-11T06:52:32.310Z,20.53
2023-02-11T06:54:59.976Z,20.20
2023-02-11T06:57:27.726Z,21.57
2023-02-11T06:59:56.669Z,20.77
2023-02-11T07:02:24.193Z,20.50
2023-02-11T07:04:51.720Z,20.17
2023-02-11T07:07:19.278Z,22.87
2023-02-11T07:09:46.771Z,21.30
2023-02-11T07:12:14.262Z,22.03
2023-02-11T07:14:41.764Z,21.70
2023-02-11T07:17:10.680Z,20.90
2023-02-11T07:19:38.206Z,22.07
2023-02-11T07:22:05.718Z,26.00
2023-02-11T07:24:33.758Z,24.43
2023-02-11T07:27:01.289Z,24.10
2023-02-11T07:29:28.833Z,23.07
2023-02-11T07:31:56.443Z,21.37
2023-02-11T07:34:25.615Z,21.73
2023-02-11T07:36:53.137Z,21.43
2023-02-11T07:39:21.922Z,22.47
2023-02-11T07:41:49.521Z,20.53
2023-02-11T07:44:17.078Z,21.83
2023-02-11T07:46:45.529Z,22.13
2023-02-11T07:49:13.190Z,21.87
2023-02-11T07:51:42.093Z,22.77
2023-02-11T07:54:11.097Z,21.17
2023-02-11T07:56:38.794Z,21.53
2023-02-11T07:59:06.389Z,20.43
2023-02-11T08:01:34.027Z,21.10
2023-02-11T08:04:02.806Z,22.43
2023-02-11T08:06:37.572Z,23.03
2023-02-11T08:09:07.917Z,20.27
2023-02-11T08:11:35.704Z,21.20
2023-02-11T08:14:03.528Z,22.00
2023-02-11T08:16:32.844Z,21.77
2023-02-11T08:19:01.967Z,22.23
2023-02-11T08:21:29.755Z,21.97
2023-02-11T08:23:58.024Z,24.10
2023-02-11T08:26:28.444Z,21.73
2023-02-11T08:28:56.565Z,21.57
2023-02-11T08:31:25.001Z,22.23
2023-02-11T08:33:54.337Z,22.50
2023-02-11T08:36:25.955Z,21.67
2023-02-11T08:39:12.160Z,20.63
2023-02-11T08:41:47.720Z,22.17
2023-02-11T08:44:17.429Z,20.57
2023-02-11T08:46:44.958Z,20.57
2023-02-11T08:49:12.870Z,22.13
2023-02-11T08:51:41.172Z,20.57
2023-02-11T08:54:09.944Z,22.00
2023-02-11T08:56:38.211Z,21.70
2023-02-11T08:59:07.813Z,23.17
2023-02-11T09:01:35.640Z,22.77
2023-02-11T09:04:03.721Z,22.40
2023-02-11T09:06:31.388Z,21.27
2023-02-11T09:08:59.614Z,21.77
2023-02-11T09:11:28.663Z,21.53
2023-02-11T09:13:56.342Z,22.57
2023-02-11T09:16:27.246Z,21.37
2023-02-11T09:18:55.213Z,21.40
2023-02-11T09:21:23.054Z,21.27
2023-02-11T09:23:50.766Z,20.33
2023-02-11T09:26:20.310Z,23.13
2023-02-11T09:28:48.533Z,23.23
2023-02-11T09:31:17.559Z,23.67
2023-02-11T09:33:48.820Z,22.93
2023-02-11T09:36:17.185Z,20.38
2023-02-11T09:38:45.006Z,18.58
2023-02-11T09:41:25.479Z,17.45
2023-02-11T09:43:54.583Z,14.50
2023-02-11T09:46:23.224Z,15.10
2023-02-11T09:48:54.558Z,14.23
2023-02-11T09:51:25.599Z,13.93
2023-02-11T09:54:00.098Z,12.07
2023-02-11T09:56:29.270Z,13.13
2023-02-11T09:58:56.822Z,13.25
2023-02-11T10:01:30.896Z,13.07
2023-02-11T10:04:06.046Z,13.82
2023-02-11T10:06:38.073Z,12.45
2023-02-11T10:09:13.123Z,12.20
2023-02-11T10:11:44.271Z,12.73
2023-02-11T10:14:21.975Z,12.23
2023-02-11T10:16:56.466Z,11.07
2023-02-11T10:19:34.217Z,10.10
2023-02-11T10:22:09.221Z,10.32
2023-02-11T10:24:37.240Z,10.32
2023-02-11T10:27:07.596Z,10.98
2023-02-11T10:29:38.180Z,9.57
2023-02-11T10:32:08.704Z,9.20
2023-02-11T10:34:39.401Z,9.25
2023-02-11T10:37:07.262Z,8.50
2023-02-11T10:39:34.763Z,9.13
2023-02-11T10:42:06.393Z,9.20
2023-02-11T10:44:35.453Z,9.30
2023-02-11T10:47:06.659Z,9.50
2023-02-11T10:49:35.640Z,8.25
2023-02-11T10:52:15.598Z,8.45
2023-02-11T10:54:43.614Z,8.48
2023-02-11T10:57:18.542Z,8.77
2023-02-11T10:59:46.230Z,8.23
2023-02-11T11:02:22.733Z,7.60
2023-02-11T11:04:50.509Z,7.85
2023-02-11T11:07:22.475Z,8.90
2023-02-11T11:09:52.010Z,8.63
2023-02-11T11:12:25.815Z,8.95
2023-02-11T11:14:55.633Z,8.93
2023-02-11T11:17:23.199Z,9.18
2023-02-11T11:19:50.817Z,7.93
2023-02-11T11:22:24.035Z,7.90
2023-02-11T11:24:54.586Z,8.05
2023-02-11T11:27:24.880Z,8.25
2023-02-11T11:29:54.039Z,9.02
2023-02-11T11:32:23.147Z,8.95
2023-02-11T11:34:51.548Z,9.25
2023-02-11T11:37:24.714Z,8.10
2023-02-11T11:40:03.482Z,7.63
2023-02-11T11:42:32.165Z,8.50
2023-02-11T11:45:00.561Z,8.00
2023-02-11T11:47:30.785Z,8.10
2023-02-11T11:50:10.247Z,7.28
2023-02-11T11:52:42.583Z,7.78
2023-02-11T11:55:14.438Z,7.53
2023-02-11T11:57:42.429Z,7.60
2023-02-11T12:00:17.337Z,7.60
2023-02-11T12:03:06.087Z,7.95
2023-02-11T12:05:37.687Z,7.80
2023-02-11T12:08:12.055Z,7.70
2023-02-11T12:10:52.132Z,7.57
2023-02-11T12:13:45.264Z,6.82
2023-02-11T12:16:19.150Z,6.60
2023-02-11T12:18:54.344Z,7.68
2023-02-11T12:21:30.791Z,7.30
2023-02-11T12:24:17.325Z,7.22
2023-02-11T12:26:47.068Z,6.95
2023-02-11T12:29:24.266Z,9.50
2023-02-11T12:32:17.121Z,6.82
2023-02-11T12:34:54.765Z,6.93
2023-02-11T12:37:29.737Z,6.55
2023-02-11T12:40:03.924Z,6.88
2023-02-11T12:42:57.131Z,7.15
2023-02-11T12:45:33.681Z,7.40
2023-02-11T12:48:11.354Z,8.15
2023-02-11T12:50:42.390Z,8.45
2023-02-11T12:53:19.247Z,7.65
2023-02-11T12:55:50.210Z,8.73
2023-02-11T12:58:20.201Z,7.60
2023-02-11T13:00:52.097Z,9.40
2023-02-11T13:03:23.601Z,9.00
2023-02-11T13:05:53.781Z,9.02
2023-02-11T13:08:24.948Z,9.18
2023-02-11T13:10:58.139Z,10.00
2023-02-11T13:13:28.141Z,9.00
2023-02-11T13:15:58.383Z,10.88
2023-02-11T13:18:31.842Z,10.20
2023-02-11T13:21:04.646Z,8.90
2023-02-11T13:23:35.901Z,9.02
2023-02-11T13:26:08.611Z,9.85
2023-02-11T13:28:43.792Z,10.10
2023-02-11T13:31:14.212Z,9.48
2023-02-11T13:33:44.347Z,10.15
2023-02-11T13:36:14.524Z,9.98
2023-02-11T13:38:42.497Z,9.95
2023-02-11T13:41:19.462Z,10.93
2023-02-11T13:43:58.263Z,10.23
2023-02-11T13:46:26.684Z,10.05
2023-02-11T13:48:55.270Z,11.40
2023-02-11T13:51:35.851Z,9.40
2023-02-11T13:54:04.227Z,10.23
2023-02-11T13:56:34.620Z,10.75
2023-02-11T13:59:05.957Z,11.48
2023-02-11T14:01:40.561Z,11.30
2023-02-11T14:04:40.192Z,11.05
2023-02-11T14:07:46.562Z,9.65
2023-02-11T14:10:32.648Z,10.25
2023-02-11T14:13:23.170Z,9.70
2023-02-11T14:16:04.308Z,10.45
2023-02-11T14:18:41.221Z,9.80
2023-02-11T14:21:13.459Z,10.43
2023-02-11T14:23:41.708Z,11.15
2023-02-11T14:26:26.720Z,10.63
2023-02-11T14:29:01.645Z,11.10
2023-02-11T14:31:35.123Z,10.40
2023-02-11T14:34:23.525Z,11.25
2023-02-11T14:36:57.317Z,10.82
2023-02-11T14:39:34.778Z,13.25
2023-02-11T14:42:06.568Z,12.55
2023-02-11T14:44:36.412Z,12.05
2023-02-11T14:47:04.187Z,10.60
2023-02-11T14:49:33.969Z,11.95
2023-02-11T14:52:05.504Z,10.98
2023-02-11T14:54:33.504Z,10.48
2023-02-11T14:57:07.583Z,11.20
2023-02-11T14:59:39.029Z,11.18
2023-02-11T15:02:21.224Z,11.93
2023-02-11T15:04:51.915Z,10.73
2023-02-11T15:07:19.530Z,11.10
2023-02-11T15:09:48.479Z,10.75
2023-02-11T15:12:18.660Z,10.07
2023-02-11T15:14:50.903Z,12.35
2023-02-11T15:17:22.968Z,11.15
2023-02-11T15:19:53.530Z,10.85
2023-02-11T15:25:10.986Z,11.48
2023-02-11T15:27:40.025Z,10.13
2023-02-11T15:30:24.919Z,10.50
2023-02-11T15:32:57.980Z,10.38
2023-02-11T15:35:28.476Z,9.45
2023-02-11T15:37:58.026Z,9.38
2023-02-11T15:40:27.774Z,9.25
2023-02-11T15:42:59.035Z,9.93
2023-02-11T15:45:30.375Z,10.30
2023-02-11T15:48:00.181Z,10.20
2023-02-11T15:50:28.721Z,9.88
2023-02-11T15:52:57.148Z,10.65
2023-02-11T15:55:25.420Z,10.75
2023-02-11T15:57:54.934Z,10.40
2023-02-11T16:00:25.247Z,10.25
2023-02-11T16:02:54.371Z,11.00
2023-02-11T16:05:30.142Z,11.88
2023-02-11T16:07:58.202Z,11.00
2023-02-11T16:10:27.258Z,11.23
2023-02-11T16:12:55.986Z,11.68
2023-02-11T16:15:30.823Z,11.70
2023-02-11T16:17:59.967Z,11.23
2023-02-11T16:20:28.323Z,12.40
2023-02-11T16:22:56.031Z,12.07
2023-02-11T16:25:24.759Z,13.13
2023-02-11T16:27:53.118Z,12.90
2023-02-11T16:30:34.620Z,12.68
2023-02-11T16:33:04.235Z,13.10
2023-02-11T16:35:34.113Z,13.15
2023-02-11T16:38:02.337Z,13.30
2023-02-11T16:40:29.984Z,12.77
2023-02-11T16:42:57.555Z,13.10
2023-02-11T16:45:25.186Z,13.90
2023-02-11T16:47:59.957Z,14.07
2023-02-11T16:50:30.093Z,13.60
2023-02-11T16:53:01.694Z,13.30
2023-02-11T16:55:32.713Z,15.30
2023-02-11T16:58:13.948Z,14.52
2023-02-11T17:00:43.524Z,13.55
2023-02-11T17:03:16.144Z,15.02
2023-02-11T17:05:55.412Z,14.50
2023-02-11T17:08:23.856Z,15.13
2023-02-11T17:10:54.232Z,13.05
2023-02-11T17:13:22.405Z,14.43
2023-02-11T17:15:55.909Z,15.05
2023-02-11T17:18:23.749Z,14.95
2023-02-11T17:20:56.143Z,15.88
2023-02-11T17:23:24.044Z,14.20
2023-02-11T17:25:56.195Z,18.65
2023-02-11T17:28:23.947Z,16.83
2023-02-11T17:30:52.413Z,15.15
2023-02-11T17:33:20.392Z,16.10
2023-02-11T17:35:48.029Z,15.55
2023-02-11T17:38:17.201Z,15.32
2023-02-11T17:40:44.880Z,16.45
2023-02-11T17:43:12.457Z,18.08
2023-02-11T17:45:42.375Z,18.02
2023-02-11T17:48:10.037Z,18.60
2023-02-11T17:50:37.639Z,16.98
2023-02-11T17:53:05.443Z,17.05
2023-02-11T17:55:35.233Z,16.40
2023-02-11T17:58:03.841Z,16.83
2023-02-11T18:00:31.510Z,15.23
2023-02-11T18:03:02.960Z,16.55
2023-02-11T18:05:34.544Z,14.98
2023-02-11T18:08:02.164Z,17.48
2023-02-11T18:10:29.700Z,16.63
2023-02-11T18:12:58.646Z,15.43
2023-02-11T18:15:30.065Z,17.48
2023-02-11T18:18:02.636Z,15.93
2023-02-11T18:20:39.682Z,13.85
2023-02-11T18:23:07.735Z,13.82
2023-02-11T18:25:37.804Z,15.25
2023-02-11T18:28:13.435Z,15.40
2023-02-11T18:30:44.141Z,15.45
2023-02-11T18:33:14.501Z,15.93
2023-02-11T18:35:45.953Z,15.50
2023-02-11T18:38:16.659Z,14.85
2023-02-11T18:40:47.460Z,16.48
2023-02-11T18:43:16.706Z,14.35
2023-02-11T18:45:44.627Z,14.02
2023-02-11T18:48:14.525Z,14.07
2023-02-11T18:50:42.623Z,13.57
2023-02-11T18:53:15.702Z,13.45
2023-02-11T18:55:43.964Z,12.38
2023-02-11T18:58:11.687Z,12.52
2023-02-11T19:00:41.813Z,13.32
2023-02-11T19:03:09.465Z,13.55
2023-02-11T19:05:41.744Z,13.48
2023-02-11T19:08:09.272Z,12.90
2023-02-11T19:10:40.090Z,14.10
2023-02-11T19:13:08.605Z,15.38
2023-02-11T19:15:36.324Z,14.30
2023-02-11T19:18:05.582Z,13.35
2023-02-11T19:20:35.760Z,14.45
2023-02-11T19:23:03.403Z,13.57
2023-02-11T19:25:31.007Z,14.07
2023-02-11T19:27:58.712Z,13.82
2023-02-11T19:30:26.351Z,14.90
2023-02-11T19:32:57.065Z,15.38
2023-02-11T19:35:26.299Z,15.85
2023-02-11T19:37:53.870Z,15.82
2023-02-11T19:40:22.173Z,15.07
2023-02-11T19:42:49.829Z,15.70
2023-02-11T19:45:19.802Z,15.60
2023-02-11T19:47:47.358Z,16.90
2023-02-11T19:50:14.961Z,16.05
2023-02-11T19:52:44.236Z,16.45
2023-02-11T19:55:11.951Z,16.33
2023-02-11T19:57:39.615Z,15.82
2023-02-11T20:00:07.846Z,16.05
2023-02-11T20:02:35.867Z,15.73
2023-02-11T20:05:04.929Z,16.05
2023-02-11T20:07:34.405Z,16.67
2023-02-11T20:10:03.408Z,16.42
2023-02-11T20:12:31.064Z,16.83
2023-02-11T20:14:58.634Z,17.48
2023-02-11T20:17:26.175Z,15.73
2023-02-11T20:19:53.866Z,17.23
2023-02-11T20:22:21.442Z,16.27
2023-02-11T20:24:49.042Z,16.45
2023-02-11T20:27:20.495Z,15.90
2023-02-11T20:29:51.393Z,15.45
2023-02-11T20:32:19.007Z,15.82
2023-02-11T20:34:53.448Z,14.77
2023-02-11T20:37:21.116Z,15.38
2023-02-11T20:39:48.739Z,15.38
2023-02-11T20:42:18.176Z,14.38
2023-02-11T20:44:45.709Z,14.48
2023-02-11T20:47:13.519Z,15.43
2023-02-11T20:49:41.198Z,14.38
2023-02-11T20:52:09.165Z,15.95
2023-02-11T20:54:36.836Z,14.98
2023-02-11T20:57:04.657Z,15.32
2023-02-11T20:59:33.743Z,16.15
2023-02-11T21:02:03.987Z,18.52
2023-02-11T21:04:32.662Z,18.23
2023-02-11T21:07:01.526Z,17.73
2023-02-11T21:09:30.072Z,17.83
2023-02-11T21:11:57.950Z,24.30
2023-02-11T21:14:26.526Z,25.17
2023-02-11T21:16:55.736Z,25.33
2023-02-11T21:19:23.754Z,24.23
2023-02-11T21:21:51.415Z,24.08
2023-02-11T21:24:19.205Z,22.95
2023-02-11T21:26:50.156Z,24.98
2023-02-11T21:29:17.691Z,25.98
2023-02-11T21:31:47.205Z,21.67
2023-02-11T21:34:16.877Z,21.60
2023-02-11T21:36:45.201Z,18.95
2023-02-11T21:39:13.591Z,21.10
2023-02-11T21:41:41.165Z,20.75
2023-02-11T21:44:09.098Z,19.80
2023-02-11T21:46:37.468Z,19.92
2023-02-11T21:49:05.043Z,22.15
2023-02-11T21:51:33.903Z,25.83
2023-02-11T21:54:02.389Z,22.38
2023-02-11T21:56:33.868Z,21.98
2023-02-11T21:59:01.476Z,20.52
2023-02-11T22:01:32.598Z,21.45
2023-02-11T22:04:00.250Z,20.85
2023-02-11T22:06:31.168Z,21.60
2023-02-11T22:09:02.465Z,20.88
2023-02-11T22:11:30.041Z,22.58
2023-02-11T22:13:57.992Z,23.30
2023-02-11T22:16:26.717Z,24.60
2023-02-11T22:18:54.895Z,23.08
2023-02-11T22:21:23.479Z,24.52
2023-02-11T22:23:51.590Z,24.05
2023-02-11T22:26:21.301Z,21.60
2023-02-11T22:28:48.981Z,23.30
2023-02-11T22:31:17.585Z,21.42
2023-02-11T22:33:45.779Z,20.33
2023-02-11T22:36:16.094Z,18.15
2023-02-11T22:38:44.460Z,18.35
2023-02-11T22:41:12.390Z,18.63
2023-02-11T22:43:42.555Z,17.53
2023-02-11T22:46:12.002Z,18.40
2023-02-11T22:48:39.632Z,21.08
2023-02-11T22:51:07.805Z,18.60
2023-02-11T22:53:35.457Z,18.10
2023-02-11T22:56:04.203Z,18.30
2023-02-11T22:58:31.766Z,19.63
2023-02-11T23:01:00.751Z,22.58
2023-02-11T23:03:28.821Z,21.98
2023-02-11T23:05:58.267Z,22.05
2023-02-11T23:08:26.234Z,21.80
2023-02-11T23:10:53.769Z,22.80
2023-02-11T23:13:21.401Z,21.60
2023-02-11T23:15:49.103Z,22.45
2023-02-11T23:18:18.124Z,24.23
2023-02-11T23:20:45.942Z,22.83
2023-02-11T23:23:13.539Z,22.03
2023-02-11T23:25:44.300Z,23.92
2023-02-11T23:28:12.068Z,21.80
2023-02-11T23:30:41.296Z,21.50
2023-02-11T23:33:08.773Z,20.95
2023-02-11T23:35:37.937Z,21.58
2023-02-11T23:38:05.950Z,20.40
2023-02-11T23:40:33.520Z,18.88
2023-02-11T23:43:01.023Z,18.80
2023-02-11T23:45:28.576Z,18.98
2023-02-11T23:47:56.089Z,19.75
2023-02-11T23:50:23.688Z,18.17
2023-02-11T23:52:52.659Z,18.70
2023-02-11T23:55:20.262Z,19.65
2023-02-11T23:57:47.917Z,18.60
